Time;durP1;ratioP1;P1;durP2;ratioP2;P2;SDS_P1;SDS_P2;PMS_P1;PMS_P2;Temp;Humidity;BMP_temperature;BMP_pressure;BME280_temperature;BME280_humidity;BME280_pressure;Samples;Min_cycle;Max_cycle;Signal;HPM_P1;HPM_P2
2022/11/01 00:01:49;;;;;;;8.00;3.25;;;18.80;52.70;;;;;;5023465;28;20053;-49
2022/11/01 00:04:16;;;;;;;13.43;3.42;;;18.80;52.70;;;;;;5023530;28;20543;-49
2022/11/01 00:06:45;;;;;;;12.85;3.65;;;18.80;52.90;;;;;;5023323;28;20073;-47
2022/11/01 00:09:12;;;;;;;12.02;3.65;;;18.80;52.60;;;;;;5022648;28;20060;-46
2022/11/01 00:11:39;;;;;;;8.55;3.35;;;18.80;52.60;;;;;;5022605;28;20050;-47
2022/11/01 00:14:07;;;;;;;8.15;3.63;;;18.80;52.60;;;;;;5023335;28;20050;-47
2022/11/01 00:16:34;;;;;;;8.32;3.40;;;18.80;52.60;;;;;;5023541;28;20532;-47
2022/11/01 00:19:01;;;;;;;6.28;3.33;;;18.80;52.60;;;;;;5023360;28;20064;-46
2022/11/01 00:21:29;;;;;;;9.95;3.67;;;18.90;52.60;;;;;;5023352;28;20060;-46
2022/11/01 00:23:57;;;;;;;11.55;3.97;;;18.80;52.50;;;;;;5021994;28;20061;-47
2022/11/01 00:26:25;;;;;;;7.47;3.70;;;18.80;53.00;;;;;;5022913;28;20057;-49
2022/11/01 00:28:52;;;;;;;19.17;4.32;;;18.80;52.50;;;;;;5023234;28;20057;-46
2022/11/01 00:31:21;;;;;;;9.43;3.50;;;18.90;52.50;;;;;;5023228;28;20053;-45
2022/11/01 00:33:48;;;;;;;13.05;4.28;;;18.90;52.60;;;;;;5023536;28;20061;-47
2022/11/01 00:36:15;;;;;;;12.27;3.85;;;18.90;52.50;;;;;;5022881;28;20398;-49
2022/11/01 00:38:43;;;;;;;15.15;4.32;;;18.80;52.50;;;;;;5022673;28;20497;-46
2022/11/01 00:41:11;;;;;;;8.30;4.07;;;18.90;52.50;;;;;;5022277;28;20060;-46
2022/11/01 00:43:39;;;;;;;11.45;3.88;;;18.90;52.50;;;;;;5022164;28;20049;-50
2022/11/01 00:46:06;;;;;;;10.90;4.68;;;18.90;52.50;;;;;;5022631;28;20049;-47
2022/11/01 00:48:33;;;;;;;13.27;4.30;;;18.90;52.50;;;;;;5022630;28;20054;-49
2022/11/01 00:51:01;;;;;;;10.75;4.97;;;18.90;52.50;;;;;;5023182;28;20413;-47
2022/11/01 00:53:28;;;;;;;11.20;4.10;;;18.90;52.50;;;;;;5022376;28;20053;-48
2022/11/01 00:56:00;;;;;;;10.82;4.38;;;18.90;52.50;;;;;;5022297;28;20057;-47
2022/11/01 00:58:28;;;;;;;9.93;3.70;;;18.90;52.50;;;;;;5022998;28;20381;-48
2022/11/01 01:00:56;;;;;;;10.75;4.30;;;18.90;52.50;;;;;;5022680;28;20066;-45
2022/11/01 01:03:23;;;;;;;14.98;4.68;;;18.90;52.50;;;;;;5023091;28;20053;-49
2022/11/01 01:05:52;;;;;;;5.57;3.35;;;18.90;52.50;;;;;;5022528;28;20053;-48
2022/11/01 01:08:20;;;;;;;8.70;4.00;;;18.90;52.50;;;;;;5022291;28;20049;-48
2022/11/01 01:10:47;;;;;;;11.85;3.90;;;18.80;52.50;;;;;;5022183;28;20061;-47
2022/11/01 01:13:15;;;;;;;11.35;3.85;;;18.90;52.60;;;;;;5023633;28;20409;-46
2022/11/01 01:15:43;;;;;;;12.15;4.28;;;18.80;52.50;;;;;;5022929;28;20065;-47
2022/11/01 01:18:11;;;;;;;15.63;4.15;;;18.90;52.60;;;;;;5023365;28;20060;-47
2022/11/01 01:20:39;;;;;;;10.23;3.80;;;18.90;52.60;;;;;;5022254;28;20520;-44
2022/11/01 01:23:06;;;;;;;9.27;3.60;;;18.90;52.60;;;;;;5022425;28;20064;-48
2022/11/01 01:25:34;;;;;;;8.98;4.28;;;18.90;52.70;;;;;;5021786;28;20053;-47
2022/11/01 01:28:01;;;;;;;10.55;3.40;;;18.80;52.60;;;;;;5021660;28;20504;-46
2022/11/01 01:30:28;;;;;;;8.98;3.90;;;18.90;52.70;;;;;;5022419;28;20059;-47
2022/11/01 01:32:57;;;;;;;10.20;3.72;;;18.90;52.70;;;;;;5022845;28;20080;-48
2022/11/01 01:35:24;;;;;;;9.23;3.60;;;18.80;52.70;;;;;;5023836;28;20057;-49
2022/11/01 01:37:51;;;;;;;7.50;3.65;;;18.90;52.80;;;;;;5025671;28;20414;-46
2022/11/01 01:40:19;;;;;;;11.90;4.20;;;18.90;52.90;;;;;;5025177;28;20072;-46
2022/11/01 01:42:46;;;;;;;8.82;3.83;;;18.80;52.90;;;;;;5026176;28;20060;-44
2022/11/01 01:45:35;;;;;;;8.40;3.53;;;18.90;52.90;;;;;;5025834;28;20066;-44
2022/11/01 01:48:12;;;;;;;8.73;3.53;;;18.90;53.00;;;;;;5025949;28;20053;-47
2022/11/01 01:50:45;;;;;;;8.93;3.95;;;18.90;53.00;;;;;;5025881;28;20429;-46
2022/11/01 01:53:15;;;;;;;14.82;3.80;;;18.90;53.00;;;;;;5025431;28;20429;-51
2022/11/01 01:55:48;;;;;;;6.82;3.65;;;18.90;53.00;;;;;;5025214;28;20058;-48
2022/11/01 01:58:19;;;;;;;7.82;4.10;;;18.90;53.10;;;;;;5025578;28;20389;-48
2022/11/01 02:00:46;;;;;;;6.78;3.65;;;18.90;53.10;;;;;;5026780;28;20050;-49
2022/11/01 02:03:15;;;;;;;9.88;3.53;;;18.90;53.20;;;;;;5025123;28;20053;-47
2022/11/01 02:05:47;;;;;;;6.03;3.30;;;18.90;53.30;;;;;;5025489;28;20053;-52
2022/11/01 02:08:15;;;;;;;4.93;3.10;;;18.90;53.30;;;;;;5025326;28;20057;-47
2022/11/01 02:10:43;;;;;;;8.93;3.47;;;18.80;53.30;;;;;;5024258;28;20062;-46
2022/11/01 02:13:14;;;;;;;10.32;3.97;;;18.80;53.40;;;;;;5025454;28;20064;-48
2022/11/01 02:15:50;;;;;;;7.35;3.45;;;18.80;53.60;;;;;;5025696;28;20053;-49
2022/11/01 02:18:27;;;;;;;8.90;3.30;;;18.80;53.50;;;;;;5025093;28;20053;-46
2022/11/01 02:21:37;;;;;;;10.82;3.38;;;18.80;53.50;;;;;;5025631;28;20057;-47
2022/11/01 02:24:41;;;;;;;8.20;4.07;;;18.80;53.60;;;;;;5025346;28;20062;-48
2022/11/01 02:27:24;;;;;;;11.90;3.63;;;18.80;54.10;;;;;;5025532;28;20056;-47
2022/11/01 02:30:06;;;;;;;12.75;4.20;;;18.90;53.60;;;;;;5025473;28;20398;-46
2022/11/01 02:32:59;;;;;;;8.07;3.70;;;18.80;53.70;;;;;;5025084;28;20064;-50
2022/11/01 02:35:39;;;;;;;8.32;3.97;;;18.90;53.70;;;;;;5025054;28;20068;-46
2022/11/01 02:38:08;;;;;;;7.82;3.63;;;18.80;53.70;;;;;;5023321;28;20042;-45
2022/11/01 02:40:44;;;;;;;12.00;3.90;;;18.80;53.70;;;;;;5024403;28;20057;-50
2022/11/01 02:43:15;;;;;;;8.40;3.67;;;18.80;53.70;;;;;;5024830;28;20061;-45
2022/11/01 02:45:47;;;;;;;10.55;3.80;;;18.80;53.80;;;;;;5025458;28;20489;-49
2022/11/01 02:48:16;;;;;;;9.07;3.53;;;18.80;53.80;;;;;;5024564;28;20060;-47
2022/11/01 02:50:47;;;;;;;8.13;3.58;;;18.80;53.90;;;;;;5024458;28;20053;-45
2022/11/01 02:53:14;;;;;;;7.55;3.17;;;18.80;53.90;;;;;;5023650;28;20068;-48
2022/11/01 02:55:42;;;;;;;6.70;3.45;;;18.80;54.00;;;;;;5023963;28;20061;-46
2022/11/01 02:58:15;;;;;;;7.68;3.55;;;18.80;54.00;;;;;;5024607;28;20057;-49
2022/11/01 03:00:44;;;;;;;9.15;3.90;;;18.80;54.00;;;;;;5024566;28;20053;-49
2022/11/01 03:03:16;;;;;;;8.20;3.58;;;18.80;54.10;;;;;;5024818;28;20053;-45
2022/11/01 03:05:53;;;;;;;7.88;3.38;;;18.80;54.20;;;;;;5023843;28;20053;-46
2022/11/01 03:08:23;;;;;;;9.50;3.72;;;18.80;54.20;;;;;;5023701;28;20080;-46
2022/11/01 03:10:58;;;;;;;7.95;4.10;;;18.80;54.20;;;;;;5023449;28;20061;-45
2022/11/01 03:13:35;;;;;;;9.25;3.65;;;18.80;54.20;;;;;;5022198;28;20053;-45
2022/11/01 03:16:17;;;;;;;5.80;3.13;;;18.80;54.30;;;;;;5024151;28;20060;-47
2022/11/01 03:18:54;;;;;;;6.35;3.08;;;18.80;54.30;;;;;;5024639;28;20058;-47
2022/11/01 03:21:26;;;;;;;7.57;3.83;;;18.80;54.40;;;;;;5023393;28;20063;-50
2022/11/01 03:24:01;;;;;;;4.57;3.03;;;18.80;54.50;;;;;;5033386;28;20401;-49
2022/11/01 03:26:32;;;;;;;10.05;3.40;;;18.80;54.50;;;;;;5035009;28;20714;-54
2022/11/01 03:29:02;;;;;;;11.25;3.17;;;18.80;54.50;;;;;;5037055;28;20061;-50
2022/11/01 03:31:32;;;;;;;6.13;3.20;;;18.80;54.70;;;;;;5036435;28;20057;-54
2022/11/01 03:34:04;;;;;;;6.95;3.17;;;18.80;54.80;;;;;;5035561;28;20058;-53
2022/11/01 03:36:38;;;;;;;5.20;2.65;;;18.80;54.90;;;;;;5036128;28;20055;-50
2022/11/01 03:39:13;;;;;;;6.57;2.90;;;18.80;55.00;;;;;;5032736;28;20053;-54
2022/11/01 03:41:44;;;;;;;4.75;2.70;;;18.80;55.10;;;;;;5035029;28;20061;-54
2022/11/01 03:44:13;;;;;;;7.03;2.63;;;18.80;55.20;;;;;;5033751;28;20424;-54
2022/11/01 03:46:42;;;;;;;8.27;2.80;;;18.80;55.20;;;;;;5037907;28;20049;-54
2022/11/01 03:49:09;;;;;;;3.35;2.40;;;18.80;55.30;;;;;;5034796;28;20076;-55
2022/11/01 03:51:37;;;;;;;6.95;3.08;;;18.80;55.30;;;;;;5036797;28;20049;-54
2022/11/01 03:54:09;;;;;;;7.90;2.65;;;18.80;55.50;;;;;;5036579;28;20053;-52
2022/11/01 03:56:38;;;;;;;5.78;2.70;;;18.80;55.40;;;;;;5035974;28;20057;-55
2022/11/01 03:59:06;;;;;;;7.88;2.38;;;18.80;55.50;;;;;;5035362;28;20049;-54
2022/11/01 04:01:33;;;;;;;6.28;2.80;;;18.80;55.50;;;;;;5035657;28;20057;-54
2022/11/01 04:04:01;;;;;;;4.90;2.67;;;18.80;55.60;;;;;;5035972;28;20060;-55
2022/11/01 04:06:28;;;;;;;9.35;2.97;;;18.80;55.60;;;;;;5044710;23;20049;-55
2022/11/01 04:08:57;;;;;;;6.45;2.55;;;18.90;55.70;;;;;;5035314;28;20041;-54
2022/11/01 04:11:25;;;;;;;4.05;2.55;;;18.90;55.80;;;;;;5034213;28;20059;-53
2022/11/01 04:20:31;;;;;;;4.90;2.53;;;18.90;55.80;;;;;;5034499;28;20061;-54
2022/11/01 04:22:09;;;;;;;7.28;2.70;;;19.00;55.70;;;;;;5040850;28;19928;-53
2022/11/01 04:24:38;;;;;;;9.43;2.70;;;19.00;55.60;;;;;;5033763;28;20417;-48
2022/11/01 04:27:05;;;;;;;5.95;2.78;;;19.00;55.70;;;;;;5035161;28;20405;-52
2022/11/01 04:29:32;;;;;;;9.50;2.60;;;19.00;55.80;;;;;;5031515;28;20045;-51
2022/11/01 04:32:00;;;;;;;6.53;2.22;;;19.00;55.80;;;;;;5031604;28;20960;-55
2022/11/01 04:37:21;;;;;;;4.47;2.53;;;19.00;56.00;;;;;;5088068;27;21225;-54
2022/11/01 04:39:49;;;;;;;3.92;2.50;;;18.90;56.00;;;;;;5073245;28;20063;-51
2022/11/01 04:42:16;;;;;;;7.65;2.75;;;19.00;56.00;;;;;;5076764;28;20052;-55
2022/11/01 04:44:45;;;;;;;10.75;2.75;;;18.90;56.00;;;;;;5079427;28;21082;-55
2022/11/01 04:47:12;;;;;;;7.45;3.30;;;19.00;56.20;;;;;;5072186;28;20065;-52
2022/11/01 04:49:39;;;;;;;8.10;2.55;;;18.90;56.20;;;;;;5079300;28;20059;-54
2022/11/01 04:52:07;;;;;;;5.32;3.28;;;18.90;56.20;;;;;;5075566;28;20595;-51
2022/11/01 04:54:35;;;;;;;7.10;2.60;;;19.00;56.30;;;;;;5075225;28;20052;-53
2022/11/01 04:57:03;;;;;;;7.82;2.78;;;19.00;56.30;;;;;;5080448;28;20055;-48
2022/11/01 04:59:30;;;;;;;5.50;2.50;;;18.90;56.30;;;;;;5078090;28;20055;-53
2022/11/01 05:01:58;;;;;;;10.40;2.75;;;18.90;56.40;;;;;;5087124;28;20051;-51
2022/11/01 05:04:25;;;;;;;4.63;2.40;;;19.00;56.50;;;;;;5086233;28;20059;-54
2022/11/01 05:06:52;;;;;;;11.32;5.32;;;18.90;56.50;;;;;;5077618;28;20056;-54
2022/11/01 05:09:19;;;;;;;48.13;22.05;;;18.90;56.50;;;;;;5052701;28;20064;-54
2022/11/01 05:11:48;;;;;;;26.13;13.27;;;18.90;56.60;;;;;;5055349;28;20056;-54
2022/11/01 05:14:15;;;;;;;10.00;5.22;;;19.00;56.70;;;;;;5061052;28;20057;-55
2022/11/01 05:16:42;;;;;;;9.20;3.70;;;18.90;56.60;;;;;;5073070;28;20052;-55
2022/11/01 05:19:10;;;;;;;9.75;3.22;;;18.90;56.60;;;;;;5067322;28;20064;-52
2022/11/01 05:21:37;;;;;;;8.90;2.70;;;18.90;56.60;;;;;;5069652;28;20504;-53
2022/11/01 05:24:04;;;;;;;8.55;2.45;;;18.90;56.70;;;;;;5082746;28;20060;-52
2022/11/01 05:26:32;;;;;;;4.18;2.47;;;19.00;56.80;;;;;;5076712;28;20203;-55
2022/11/01 05:29:00;;;;;;;4.55;2.47;;;19.00;56.70;;;;;;5075617;28;20078;-55
2022/11/01 05:31:27;;;;;;;9.65;3.15;;;19.00;56.70;;;;;;5067527;28;20053;-53
2022/11/01 05:33:55;;;;;;;8.63;3.38;;;18.90;56.70;;;;;;5067366;28;20052;-54
2022/11/01 05:36:22;;;;;;;5.43;2.80;;;18.90;56.60;;;;;;5073792;28;20067;-52
2022/11/01 05:38:49;;;;;;;9.45;3.28;;;18.90;56.60;;;;;;5078566;28;20067;-51
2022/11/01 05:41:16;;;;;;;6.90;2.92;;;18.90;56.70;;;;;;5086580;28;20593;-53
2022/11/01 05:43:44;;;;;;;5.07;2.55;;;18.90;56.70;;;;;;5082649;28;20427;-51
2022/11/01 05:46:12;;;;;;;4.95;2.55;;;18.90;56.60;;;;;;5079143;28;20052;-50
2022/11/01 05:48:41;;;;;;;6.22;2.90;;;18.90;56.70;;;;;;5066826;28;20048;-53
2022/11/01 05:51:09;;;;;;;5.57;2.63;;;18.90;56.70;;;;;;5066727;28;20066;-50
2022/11/01 05:53:37;;;;;;;3.63;2.30;;;18.90;56.60;;;;;;5067182;28;20067;-53
2022/11/01 05:56:04;;;;;;;4.43;2.28;;;18.90;56.70;;;;;;5057546;28;20059;-52
2022/11/01 05:58:31;;;;;;;6.78;2.47;;;18.90;56.60;;;;;;5072050;28;20056;-54
2022/11/01 06:00:59;;;;;;;5.75;2.10;;;18.90;56.60;;;;;;5074709;28;20484;-51
2022/11/01 06:03:28;;;;;;;7.05;2.20;;;18.90;56.60;;;;;;5075248;28;20056;-56
2022/11/01 06:05:55;;;;;;;6.65;2.80;;;18.90;56.60;;;;;;5089784;22;20491;-53
2022/11/01 06:08:23;;;;;;;8.68;3.08;;;18.90;56.50;;;;;;5065000;28;20049;-53
2022/11/01 06:10:50;;;;;;;10.38;2.95;;;18.80;56.50;;;;;;5063946;28;20061;-53
2022/11/01 06:13:17;;;;;;;6.03;2.60;;;18.80;56.50;;;;;;5075017;28;20045;-54
2022/11/01 06:15:45;;;;;;;6.47;2.88;;;18.80;56.50;;;;;;5071782;28;20056;-55
2022/11/01 06:18:12;;;;;;;5.28;3.00;;;18.80;56.50;;;;;;5064528;28;20060;-55
2022/11/01 06:20:41;;;;;;;5.43;2.30;;;18.80;56.50;;;;;;5066572;28;20059;-55
2022/11/01 06:23:10;;;;;;;3.80;2.40;;;18.80;56.50;;;;;;5067285;28;20424;-53
2022/11/01 06:25:38;;;;;;;3.13;2.03;;;18.70;56.60;;;;;;5058958;28;20059;-51
2022/11/01 06:28:05;;;;;;;3.17;1.75;;;18.70;56.60;;;;;;5058842;28;20056;-52
2022/11/01 06:30:32;;;;;;;8.98;2.40;;;18.70;56.60;;;;;;5065711;28;20056;-49
2022/11/01 06:33:00;;;;;;;3.33;1.88;;;18.70;56.50;;;;;;5062720;28;20407;-48
2022/11/01 06:35:27;;;;;;;5.80;1.70;;;18.70;56.50;;;;;;5064839;28;20079;-51
2022/11/01 06:38:01;;;;;;;6.60;1.80;;;18.70;56.20;;;;;;5055599;28;20496;-47
2022/11/01 06:40:29;;;;;;;6.82;1.70;;;18.60;56.00;;;;;;5059646;28;20060;-51
2022/11/01 06:42:59;;;;;;;3.10;1.60;;;18.60;56.00;;;;;;5063248;28;20056;-54
2022/11/01 06:45:26;;;;;;;5.90;1.90;;;18.60;55.90;;;;;;5060453;28;20056;-54
2022/11/01 06:47:54;;;;;;;4.15;1.70;;;18.60;55.70;;;;;;5061712;28;20052;-53
2022/11/01 06:50:21;;;;;;;7.78;2.08;;;18.60;55.60;;;;;;5056505;28;20052;-53
2022/11/01 06:52:48;;;;;;;3.55;1.75;;;18.60;55.70;;;;;;5055556;28;20063;-43
2022/11/01 06:55:17;;;;;;;6.18;1.77;;;18.60;55.70;;;;;;5057357;28;21962;-48
2022/11/01 06:57:54;;;;;;;7.80;2.03;;;18.60;55.60;;;;;;5056253;28;21779;-54
2022/11/01 07:00:21;;;;;;;4.22;1.80;;;18.60;55.40;;;;;;5054707;28;20053;-50
2022/11/01 07:02:48;;;;;;;3.60;2.00;;;18.60;55.40;;;;;;5059016;28;20056;-46
2022/11/01 07:05:16;;;;;;;6.65;1.95;;;18.60;55.30;;;;;;5066203;22;20057;-49
2022/11/01 07:07:43;;;;;;;6.18;1.88;;;18.60;55.30;;;;;;5075282;28;20060;-47
2022/11/01 07:10:10;;;;;;;3.47;1.60;;;18.60;55.10;;;;;;5073775;28;20055;-48
2022/11/01 07:12:39;;;;;;;4.53;2.00;;;18.70;55.10;;;;;;5074967;28;20063;-46
2022/11/01 07:15:07;;;;;;;7.63;1.60;;;18.60;54.90;;;;;;5071715;28;20074;-52
2022/11/01 07:17:34;;;;;;;5.20;1.63;;;18.70;54.90;;;;;;5071639;28;20059;-45
2022/11/01 07:20:02;;;;;;;6.00;1.52;;;18.70;54.80;;;;;;5073294;28;20052;-45
2022/11/01 07:22:29;;;;;;;4.05;1.55;;;18.70;54.70;;;;;;5079985;28;20067;-52
2022/11/01 07:24:56;;;;;;;5.97;2.10;;;18.70;54.50;;;;;;5070233;28;20507;-52
2022/11/01 07:27:23;;;;;;;3.15;1.90;;;18.70;54.40;;;;;;5083382;28;20495;-48
2022/11/01 07:29:52;;;;;;;4.55;1.83;;;18.70;54.40;;;;;;5075698;28;20060;-47
2022/11/01 07:32:19;;;;;;;4.47;2.05;;;18.70;54.20;;;;;;5073654;28;20067;-48
2022/11/01 07:34:46;;;;;;;3.88;1.52;;;18.70;54.30;;;;;;5077568;28;20048;-51
2022/11/01 07:37:14;;;;;;;8.00;2.25;;;18.70;54.00;;;;;;5071729;28;20047;-51
2022/11/01 07:39:41;;;;;;;6.82;1.90;;;18.70;54.00;;;;;;5073129;28;20052;-49
2022/11/01 07:42:08;;;;;;;5.85;1.50;;;18.70;53.90;;;;;;5082129;28;20051;-49
2022/11/01 07:44:36;;;;;;;3.40;1.75;;;18.70;53.10;;;;;;5082580;28;20056;-51
2022/11/01 07:47:05;;;;;;;11.07;1.40;;;18.70;52.60;;;;;;5081297;28;20044;-44
2022/11/01 07:49:32;;;;;;;5.63;1.42;;;18.70;52.00;;;;;;5077415;28;20047;-48
2022/11/01 07:51:59;;;;;;;8.75;1.38;;;18.60;51.40;;;;;;5073057;28;20353;-42
2022/11/01 07:54:26;;;;;;;4.97;0.90;;;18.60;50.60;;;;;;5085011;28;20044;-51
2022/11/01 07:56:54;;;;;;;3.85;1.50;;;18.60;50.30;;;;;;5081198;28;20924;-46
2022/11/01 07:59:21;;;;;;;2.33;0.85;;;18.50;49.80;;;;;;5076279;28;20056;-50
2022/11/01 08:01:48;;;;;;;2.40;1.10;;;18.50;49.50;;;;;;5084240;28;20393;-58
2022/11/01 08:04:17;;;;;;;3.25;1.02;;;18.50;49.50;;;;;;5084661;28;20059;-48
2022/11/01 08:06:44;;;;;;;4.45;1.20;;;18.40;49.00;;;;;;5082998;28;20407;-47
2022/11/01 08:09:11;;;;;;;4.18;0.80;;;18.40;48.70;;;;;;5089011;28;20059;-51
2022/11/01 08:11:38;;;;;;;5.30;1.52;;;18.40;48.60;;;;;;5085299;28;20408;-47
2022/11/01 08:14:05;;;;;;;3.35;1.08;;;18.40;48.50;;;;;;5087049;28;20052;-47
2022/11/01 08:16:33;;;;;;;4.78;0.95;;;18.30;48.40;;;;;;5092027;28;20052;-47
2022/11/01 08:19:00;;;;;;;7.47;1.23;;;18.30;48.80;;;;;;5093348;28;20050;-52
2022/11/01 08:21:28;;;;;;;3.33;1.50;;;18.30;48.20;;;;;;5089689;28;20052;-50
2022/11/01 08:23:56;;;;;;;5.25;1.05;;;18.30;48.50;;;;;;5089595;28;21052;-52
2022/11/01 08:26:23;;;;;;;4.45;1.42;;;18.30;48.70;;;;;;5091290;28;20063;-52
2022/11/01 08:28:51;;;;;;;3.40;1.17;;;18.30;49.10;;;;;;5088998;28;20054;-55
2022/11/01 08:31:18;;;;;;;2.75;1.05;;;18.30;49.00;;;;;;5084428;28;20059;-48
2022/11/01 08:33:46;;;;;;;2.80;0.80;;;18.20;49.10;;;;;;5080264;28;20427;-47
2022/11/01 08:36:14;;;;;;;1.88;0.70;;;18.20;49.00;;;;;;5079744;28;20063;-54
2022/11/01 08:38:43;;;;;;;3.20;0.90;;;18.30;48.50;;;;;;5073929;28;20419;-53
2022/11/01 08:41:10;;;;;;;3.22;0.90;;;18.20;48.20;;;;;;5073490;28;20060;-47
2022/11/01 08:43:37;;;;;;;6.43;0.77;;;18.20;48.30;;;;;;5083729;28;20056;-47
2022/11/01 08:46:05;;;;;;;4.00;0.65;;;18.20;48.10;;;;;;5082961;28;20052;-44
2022/11/01 08:48:32;;;;;;;3.30;0.77;;;18.20;47.90;;;;;;5083698;28;20051;-45
2022/11/01 08:51:01;;;;;;;1.90;0.68;;;18.20;48.10;;;;;;5081403;28;20055;-51
2022/11/01 08:53:28;;;;;;;2.85;1.40;;;18.20;48.10;;;;;;5080170;28;20062;-53
2022/11/01 08:55:57;;;;;;;2.67;0.90;;;18.20;48.10;;;;;;5080967;28;20052;-51
2022/11/01 08:58:24;;;;;;;3.15;0.82;;;18.20;48.30;;;;;;5077662;28;21484;-44
2022/11/01 09:00:52;;;;;;;3.50;0.98;;;18.20;48.40;;;;;;5083860;28;20054;-53
2022/11/01 09:03:19;;;;;;;2.72;0.77;;;18.30;48.40;;;;;;5092030;28;20052;-54
2022/11/01 09:05:46;;;;;;;4.55;1.00;;;18.30;48.60;;;;;;5091171;28;20048;-51
2022/11/01 09:08:13;;;;;;;2.90;0.85;;;18.30;48.60;;;;;;5086549;28;20726;-48
2022/11/01 09:10:40;;;;;;;4.13;0.95;;;18.30;48.50;;;;;;5076447;28;20996;-49
2022/11/01 09:13:09;;;;;;;2.50;0.70;;;18.30;48.30;;;;;;5076151;28;20052;-47
2022/11/01 09:15:37;;;;;;;3.88;0.80;;;18.30;48.10;;;;;;5079335;28;20071;-51
2022/11/01 09:18:07;;;;;;;5.78;1.00;;;18.30;48.10;;;;;;5066078;28;20059;-45
2022/11/01 09:20:34;;;;;;;1.58;0.57;;;18.30;47.70;;;;;;5069288;28;20067;-46
2022/11/01 09:23:01;;;;;;;2.30;0.75;;;18.30;48.00;;;;;;5080470;28;20060;-44
2022/11/01 09:25:29;;;;;;;6.45;0.82;;;18.30;48.00;;;;;;5069364;28;20072;-44
2022/11/01 09:27:57;;;;;;;3.30;1.05;;;18.30;47.70;;;;;;5070861;28;20071;-48
2022/11/01 09:30:27;;;;;;;3.05;0.88;;;18.30;47.90;;;;;;5074788;28;20491;-48
2022/11/01 09:32:54;;;;;;;5.05;1.10;;;18.30;47.80;;;;;;5078340;28;20431;-49
2022/11/01 09:35:21;;;;;;;2.17;0.70;;;18.30;47.90;;;;;;5074674;28;20056;-45
2022/11/01 09:37:56;;;;;;;2.28;0.80;;;18.30;47.80;;;;;;5078617;28;20072;-46
2022/11/01 09:40:24;;;;;;;1.83;0.60;;;18.30;47.90;;;;;;5079688;28;20567;-42
2022/11/01 09:42:53;;;;;;;1.63;0.68;;;18.30;47.70;;;;;;5089559;28;20066;-50
2022/11/01 09:45:23;;;;;;;1.33;0.50;;;18.30;48.00;;;;;;5083596;28;20051;-49
2022/11/01 09:47:54;;;;;;;4.40;1.10;;;18.40;47.80;;;;;;5081600;28;20052;-44
2022/11/01 09:50:25;;;;;;;4.30;0.85;;;18.30;47.80;;;;;;5082220;28;20056;-50
2022/11/01 09:52:55;;;;;;;6.95;1.00;;;18.40;47.70;;;;;;5083651;28;20051;-48
2022/11/01 09:55:33;;;;;;;2.25;0.77;;;18.30;47.50;;;;;;5073974;28;20427;-51
2022/11/01 09:58:07;;;;;;;6.97;0.93;;;18.40;47.40;;;;;;5076969;28;20040;-50
2022/11/01 10:00:44;;;;;;;3.20;0.80;;;18.40;47.30;;;;;;5076371;28;20500;-42
2022/11/01 10:03:28;;;;;;;5.72;0.80;;;18.40;47.30;;;;;;5078493;28;20063;-45
2022/11/01 10:06:03;;;;;;;3.20;0.70;;;18.40;46.90;;;;;;5080494;28;20047;-50
2022/11/01 10:08:42;;;;;;;2.22;0.70;;;18.40;46.90;;;;;;5080231;28;20055;-44
2022/11/01 10:11:38;;;;;;;3.97;0.77;;;18.40;47.00;;;;;;5081193;28;20395;-45
2022/11/01 10:14:15;;;;;;;3.13;0.68;;;18.40;46.80;;;;;;5084685;28;20047;-50
2022/11/01 10:16:50;;;;;;;8.73;0.80;;;18.40;46.90;;;;;;5083477;28;20393;-48
2022/11/01 10:19:22;;;;;;;6.53;0.90;;;18.40;47.00;;;;;;5087087;28;20044;-51
2022/11/01 10:21:52;;;;;;;5.28;0.85;;;18.40;46.50;;;;;;5087443;28;20052;-51
2022/11/01 10:24:26;;;;;;;3.88;0.80;;;18.40;46.20;;;;;;5087617;28;20075;-47
2022/11/01 10:26:59;;;;;;;2.35;0.70;;;18.40;46.00;;;;;;5085082;28;20063;-48
2022/11/01 10:29:34;;;;;;;6.40;1.02;;;18.50;46.20;;;;;;5089543;28;20068;-51
2022/11/01 10:32:04;;;;;;;2.33;0.77;;;18.50;45.70;;;;;;5084775;28;20056;-45
2022/11/01 10:34:37;;;;;;;5.63;2.55;;;18.50;45.70;;;;;;5086510;28;20056;-49
2022/11/01 10:37:14;;;;;;;4.43;1.30;;;18.50;45.80;;;;;;5084545;28;20510;-49
2022/11/01 10:39:48;;;;;;;2.63;0.93;;;18.50;45.90;;;;;;5080533;28;20052;-51
2022/11/01 10:42:16;;;;;;;;;;;18.50;46.40;;;;;;5082647;28;20051;-48
2022/11/01 10:44:47;;;;;;;3.92;0.60;;;18.60;46.80;;;;;;5083102;28;19947;-47
2022/11/01 10:47:17;;;;;;;2.22;0.73;;;18.60;45.80;;;;;;5080843;28;20051;-45
2022/11/01 10:49:50;;;;;;;4.38;0.63;;;18.60;45.60;;;;;;5086757;28;20048;-44
2022/11/01 10:52:22;;;;;;;3.10;0.90;;;18.60;45.70;;;;;;5080561;28;20063;-47
2022/11/01 10:54:52;;;;;;;5.07;1.00;;;18.60;45.90;;;;;;5084575;28;20059;-44
2022/11/01 10:57:30;;;;;;;1.25;0.70;;;18.60;45.90;;;;;;5084660;28;20059;-48
2022/11/01 10:59:59;;;;;;;1.90;0.80;;;18.60;45.90;;;;;;5086029;28;20059;-53
2022/11/01 11:02:33;;;;;;;4.55;1.00;;;18.70;46.40;;;;;;5083689;28;20052;-48
2022/11/01 11:05:01;;;;;;;2.88;0.65;;;18.70;46.40;;;;;;5081691;28;20056;-54
2022/11/01 11:07:31;;;;;;;3.60;0.90;;;18.80;46.30;;;;;;5076390;22;20052;-48
2022/11/01 11:09:59;;;;;;;3.05;0.73;;;18.70;46.10;;;;;;5062977;28;20045;-56
2022/11/01 11:12:28;;;;;;;3.97;1.10;;;18.80;46.00;;;;;;5056969;28;20059;-48
2022/11/01 11:14:59;;;;;;;5.80;1.00;;;18.80;45.70;;;;;;5063373;28;20048;-47
2022/11/01 11:17:31;;;;;;;4.35;1.10;;;18.80;45.70;;;;;;5065097;28;20048;-54
2022/11/01 11:20:04;;;;;;;3.47;0.80;;;18.80;45.40;;;;;;5074764;28;20052;-49
2022/11/01 11:22:36;;;;;;;5.95;0.98;;;18.90;45.00;;;;;;5061255;28;20048;-48
2022/11/01 11:25:04;;;;;;;2.15;0.50;;;18.90;44.70;;;;;;5062733;28;20044;-49
2022/11/01 11:27:33;;;;;;;1.85;0.60;;;18.90;44.40;;;;;;5057272;28;20056;-48
2022/11/01 11:30:01;;;;;;;4.65;1.13;;;18.90;44.40;;;;;;5057363;28;20056;-48
2022/11/01 11:32:32;;;;;;;2.83;0.80;;;18.90;44.60;;;;;;5068036;28;20051;-54
2022/11/01 11:35:05;;;;;;;3.45;0.80;;;19.00;44.50;;;;;;5064126;28;20056;-52
2022/11/01 11:37:36;;;;;;;3.55;0.80;;;19.00;44.50;;;;;;5065805;28;20059;-46
2022/11/01 11:40:20;;;;;;;7.38;0.98;;;19.00;44.40;;;;;;5056770;28;20052;-53
2022/11/01 11:42:48;;;;;;;;;;;19.00;44.30;;;;;;5063145;28;20048;-53
2022/11/01 11:45:19;;;;;;;4.45;0.90;;;19.00;44.70;;;;;;5067037;28;19920;-51
2022/11/01 11:47:47;;;;;;;3.15;1.00;;;19.10;44.10;;;;;;5057338;28;20044;-52
2022/11/01 11:50:32;;;;;;;5.28;1.92;;;19.10;43.60;;;;;;5061812;28;20052;-50
2022/11/01 11:53:05;;;;;;;11.30;3.55;;;19.10;43.10;;;;;;5056222;28;20056;-52
2022/11/01 11:55:42;;;;;;;3.75;1.30;;;19.10;43.30;;;;;;5057738;28;20056;-45
2022/11/01 11:58:21;;;;;;;4.15;1.00;;;19.10;43.20;;;;;;5058788;28;20540;-55
2022/11/01 12:00:52;;;;;;;4.38;0.77;;;19.10;43.00;;;;;;5062684;28;20053;-45
2022/11/01 12:03:20;;;;;;;5.93;1.23;;;19.20;43.10;;;;;;5060819;28;20057;-46
2022/11/01 12:06:01;;;;;;;4.15;1.30;;;19.20;43.10;;;;;;5052653;28;20048;-54
2022/11/01 12:08:37;;;;;;;4.30;0.90;;;19.20;43.10;;;;;;5057633;28;20416;-49
2022/11/01 12:11:05;;;;;;;5.05;0.93;;;19.20;42.80;;;;;;5068863;28;20067;-46
2022/11/01 12:13:36;;;;;;;4.40;1.25;;;19.20;42.60;;;;;;5075444;28;20503;-46
2022/11/01 12:16:08;;;;;;;5.65;1.10;;;19.20;42.20;;;;;;5069521;28;20053;-52
2022/11/01 12:18:44;;;;;;;6.15;1.27;;;19.30;41.70;;;;;;5085795;28;20052;-48
2022/11/01 12:21:18;;;;;;;5.82;1.27;;;19.20;41.70;;;;;;5081771;28;20048;-54
2022/11/01 12:23:46;;;;;;;;;;;19.30;41.40;;;;;;5085542;28;20091;-56
2022/11/01 12:26:16;;;;;;;4.85;1.20;;;19.30;42.40;;;;;;5084796;28;19931;-46
2022/11/01 12:28:45;;;;;;;4.88;1.08;;;19.30;41.70;;;;;;5089254;28;20051;-51
2022/11/01 12:31:17;;;;;;;3.90;1.10;;;19.30;41.50;;;;;;5082241;28;20051;-46
2022/11/01 12:33:49;;;;;;;4.75;1.00;;;19.40;41.40;;;;;;5085993;28;20056;-44
2022/11/01 12:36:20;;;;;;;3.17;0.85;;;19.40;41.50;;;;;;5080573;28;20049;-54
2022/11/01 12:38:50;;;;;;;6.68;1.10;;;19.40;41.30;;;;;;5069334;28;20056;-48
2022/11/01 12:41:25;;;;;;;6.18;1.23;;;19.40;41.60;;;;;;5065716;28;20056;-50
2022/11/01 12:44:02;;;;;;;4.65;1.00;;;19.40;41.30;;;;;;5067720;28;20052;-52
2022/11/01 12:46:36;;;;;;;36.30;15.35;;;19.40;40.80;;;;;;5085281;28;20052;-53
2022/11/01 12:49:06;;;;;;;;;;;19.40;40.90;;;;;;5069865;28;20243;-46
2022/11/01 12:51:41;;;;;;;11.50;2.60;;;19.50;41.60;;;;;;5085209;28;19923;-50
2022/11/01 12:54:15;;;;;;;3.65;1.30;;;19.50;41.40;;;;;;5084667;28;20060;-49
2022/11/01 12:56:42;;;;;;;5.43;1.60;;;19.50;41.30;;;;;;5091645;28;20067;-52
2022/11/01 12:59:13;;;;;;;4.47;0.88;;;19.50;41.30;;;;;;5076880;28;20054;-51
2022/11/01 13:01:46;;;;;;;6.78;1.60;;;19.50;41.10;;;;;;5092609;28;20055;-52
2022/11/01 13:04:20;;;;;;;8.57;1.98;;;19.50;41.10;;;;;;5092319;28;20419;-45
2022/11/01 13:07:04;;;;;;;7.60;1.52;;;19.50;40.60;;;;;;5090370;28;20507;-49
2022/11/01 13:09:44;;;;;;;6.28;1.38;;;19.50;40.20;;;;;;5093615;28;20048;-45